Terminal Aerodrome Forecast
Issued by NWS

Home | Current Version | Previous Version | Text Only | Print | Product List | Glossary On
Versions: 1 2 3 4 5 6 7 8 9 10 11 12 13 14 15 16 17 18 19 20 21 22 23 24 25 26 27 28 29 30 31 32 33 34
000
FTUS41 KCAR 160600 AAA
TAFFVE
TAF AMD
KFVE 160648Z 1607/1706 27012KT 1SM -SN BR OVC005
      TEMPO 1607/1611 3/4SM -SN BR OVC004
     FM161100 30012G22KT 3SM -SN BR OVC010
     FM161300 30021G29KT P6SM SCT050
     FM162000 30016G24KT P6SM SKC
     FM162300 30009KT P6SM FEW250=

USA.gov is the U.S. government's official web portal to all federal, state and local government web resources and services.